sensor_id;sensor_type;location;lat;lon;timestamp;pressure;altitude;pressure_sealevel;temperature;humidity
55757;BME280;41676;44.610;44.078;2023-07-13T00:01:59;100526.47;;;20.40;79.04
55757;BME280;41676;44.610;44.078;2023-07-13T00:06:59;100536.50;;;20.33;79.58
55757;BME280;41676;44.610;44.078;2023-07-13T00:12:01;100526.00;;;20.25;79.99
55757;BME280;41676;44.610;44.078;2023-07-13T00:17:01;100536.59;;;20.26;80.65
55757;BME280;41676;44.610;44.078;2023-07-13T00:22:03;100528.34;;;20.21;80.83
55757;BME280;41676;44.610;44.078;2023-07-13T00:27:04;100509.56;;;19.96;81.14
55757;BME280;41676;44.610;44.078;2023-07-13T00:32:06;100527.31;;;20.04;81.95
55757;BME280;41676;44.610;44.078;2023-07-13T00:37:07;100537.88;;;20.05;81.04
55757;BME280;41676;44.610;44.078;2023-07-13T00:42:08;100420.69;;;19.34;80.67
55757;BME280;41676;44.610;44.078;2023-07-13T00:47:09;100552.91;;;20.13;80.55
55757;BME280;41676;44.610;44.078;2023-07-13T00:52:10;100548.81;;;20.11;80.92
55757;BME280;41676;44.610;44.078;2023-07-13T00:57:15;100563.78;;;20.06;82.29
55757;BME280;41676;44.610;44.078;2023-07-13T01:02:16;100565.66;;;20.06;81.78
55757;BME280;41676;44.610;44.078;2023-07-13T01:07:18;100558.28;;;20.01;82.07
55757;BME280;41676;44.610;44.078;2023-07-13T01:12:19;100486.78;;;19.55;82.18
55757;BME280;41676;44.610;44.078;2023-07-13T01:17:20;100493.38;;;19.59;82.77
55757;BME280;41676;44.610;44.078;2023-07-13T01:22:21;100549.66;;;19.93;82.87
55757;BME280;41676;44.610;44.078;2023-07-13T01:27:26;100542.66;;;19.85;82.95
55757;BME280;41676;44.610;44.078;2023-07-13T01:32:28;100558.69;;;19.80;83.55
55757;BME280;41676;44.610;44.078;2023-07-13T01:37:29;100558.38;;;19.70;83.84
55757;BME280;41676;44.610;44.078;2023-07-13T01:42:33;100576.53;;;19.81;84.14
55757;BME280;41676;44.610;44.078;2023-07-13T01:47:34;100560.03;;;19.71;84.26
55757;BME280;41676;44.610;44.078;2023-07-13T01:52:35;100500.22;;;19.37;84.48
55757;BME280;41676;44.610;44.078;2023-07-13T01:57:35;100570.31;;;19.80;85.10
55757;BME280;41676;44.610;44.078;2023-07-13T02:02:36;100567.75;;;19.86;84.76
55757;BME280;41676;44.610;44.078;2023-07-13T02:07:38;100484.81;;;19.44;84.51
55757;BME280;41676;44.610;44.078;2023-07-13T02:12:40;100556.59;;;19.82;84.44
55757;BME280;41676;44.610;44.078;2023-07-13T02:17:41;100497.84;;;19.47;84.58
55757;BME280;41676;44.610;44.078;2023-07-13T02:22:41;100576.22;;;19.89;84.59
55757;BME280;41676;44.610;44.078;2023-07-13T02:27:42;100521.53;;;19.64;84.80
55757;BME280;41676;44.610;44.078;2023-07-13T02:32:43;100594.50;;;20.24;84.31
55757;BME280;41676;44.610;44.078;2023-07-13T02:37:44;100592.38;;;20.63;83.27
55757;BME280;41676;44.610;44.078;2023-07-13T02:42:45;100601.47;;;21.10;81.78
55757;BME280;41676;44.610;44.078;2023-07-13T02:47:46;100545.72;;;21.16;79.78
55757;BME280;41676;44.610;44.078;2023-07-13T02:52:47;100593.16;;;21.35;79.47
55757;BME280;41676;44.610;44.078;2023-07-13T02:57:47;100598.56;;;21.35;78.93
55757;BME280;41676;44.610;44.078;2023-07-13T03:02:49;100601.97;;;21.19;78.49
55757;BME280;41676;44.610;44.078;2023-07-13T03:07:50;100596.38;;;20.90;78.73
55757;BME280;41676;44.610;44.078;2023-07-13T03:12:51;100587.59;;;20.65;78.75
55757;BME280;41676;44.610;44.078;2023-07-13T03:17:51;100614.59;;;20.65;77.87
55757;BME280;41676;44.610;44.078;2023-07-13T03:22:53;100530.97;;;20.10;77.95
55757;BME280;41676;44.610;44.078;2023-07-13T03:27:53;100611.13;;;20.58;77.63
55757;BME280;41676;44.610;44.078;2023-07-13T03:32:54;100618.78;;;20.61;77.32
55757;BME280;41676;44.610;44.078;2023-07-13T03:37:55;100625.44;;;20.77;77.26
55757;BME280;41676;44.610;44.078;2023-07-13T03:42:57;100628.56;;;20.92;76.83
55757;BME280;41676;44.610;44.078;2023-07-13T03:47:57;100554.47;;;20.58;76.63
55757;BME280;41676;44.610;44.078;2023-07-13T03:52:59;100642.00;;;21.10;76.94
55757;BME280;41676;44.610;44.078;2023-07-13T03:58:30;100642.22;;;21.51;76.69
55757;BME280;41676;44.610;44.078;2023-07-13T04:03:32;100642.84;;;21.76;74.86
55757;BME280;41676;44.610;44.078;2023-07-13T04:08:36;100655.31;;;21.77;75.56
55757;BME280;41676;44.610;44.078;2023-07-13T04:13:37;100633.19;;;21.69;75.57
55757;BME280;41676;44.610;44.078;2023-07-13T04:18:38;100633.53;;;22.31;73.69
55757;BME280;41676;44.610;44.078;2023-07-13T04:23:39;100640.94;;;22.76;73.00
55757;BME280;41676;44.610;44.078;2023-07-13T04:28:40;100633.94;;;23.20;71.47
55757;BME280;41676;44.610;44.078;2023-07-13T04:33:41;100642.56;;;23.51;69.64
55757;BME280;41676;44.610;44.078;2023-07-13T04:38:42;100622.03;;;23.72;67.85
55757;BME280;41676;44.610;44.078;2023-07-13T04:43:43;100583.50;;;23.19;67.25
55757;BME280;41676;44.610;44.078;2023-07-13T04:48:44;100644.22;;;23.35;67.34
55757;BME280;41676;44.610;44.078;2023-07-13T04:53:45;100643.16;;;23.53;67.72
55757;BME280;41676;44.610;44.078;2023-07-13T04:58:46;100620.56;;;23.47;66.99
55757;BME280;41676;44.610;44.078;2023-07-13T05:03:46;100604.94;;;23.38;66.65
55757;BME280;41676;44.610;44.078;2023-07-13T05:08:47;100644.88;;;23.59;66.38
55757;BME280;41676;44.610;44.078;2023-07-13T05:13:48;100653.19;;;25.13;63.30
55757;BME280;41676;44.610;44.078;2023-07-13T05:18:49;100646.56;;;26.01;60.78
55757;BME280;41676;44.610;44.078;2023-07-13T05:23:49;100643.16;;;26.31;58.98
55757;BME280;41676;44.610;44.078;2023-07-13T05:28:50;100633.50;;;26.08;59.94
55757;BME280;41676;44.610;44.078;2023-07-13T05:33:51;100586.78;;;26.31;59.14
55757;BME280;41676;44.610;44.078;2023-07-13T05:38:52;100616.13;;;26.82;57.88
55757;BME280;41676;44.610;44.078;2023-07-13T05:43:52;100619.16;;;27.06;57.07
55757;BME280;41676;44.610;44.078;2023-07-13T05:48:53;100544.69;;;26.70;56.58
55757;BME280;41676;44.610;44.078;2023-07-13T05:53:54;100603.34;;;27.03;55.49
55757;BME280;41676;44.610;44.078;2023-07-13T05:58:56;100593.84;;;27.36;55.70
55757;BME280;41676;44.610;44.078;2023-07-13T06:03:57;100592.72;;;27.63;55.34
55757;BME280;41676;44.610;44.078;2023-07-13T06:08:58;100590.16;;;28.07;54.18
55757;BME280;41676;44.610;44.078;2023-07-13T06:13:59;100583.16;;;27.60;54.49
55757;BME280;41676;44.610;44.078;2023-07-13T06:18:59;100593.00;;;27.46;54.06
55757;BME280;41676;44.610;44.078;2023-07-13T06:24:00;100580.22;;;27.26;53.54
55757;BME280;41676;44.610;44.078;2023-07-13T06:29:01;100582.66;;;27.27;52.03
55757;BME280;41676;44.610;44.078;2023-07-13T06:34:01;100584.00;;;27.56;51.48
55757;BME280;41676;44.610;44.078;2023-07-13T06:39:02;100571.13;;;27.82;50.32
55757;BME280;41676;44.610;44.078;2023-07-13T06:44:03;100581.22;;;27.91;49.63
55757;BME280;41676;44.610;44.078;2023-07-13T06:49:04;100525.84;;;27.65;49.76
55757;BME280;41676;44.610;44.078;2023-07-13T06:54:05;100576.47;;;28.17;49.70
55757;BME280;41676;44.610;44.078;2023-07-13T06:59:05;100578.00;;;28.44;49.70
55757;BME280;41676;44.610;44.078;2023-07-13T07:04:06;100587.22;;;28.63;49.12
55757;BME280;41676;44.610;44.078;2023-07-13T07:09:07;100551.94;;;28.62;47.52
55757;BME280;41676;44.610;44.078;2023-07-13T07:14:09;100574.69;;;28.92;47.77
55757;BME280;41676;44.610;44.078;2023-07-13T07:19:10;100576.41;;;29.22;47.76
55757;BME280;41676;44.610;44.078;2023-07-13T07:24:10;100570.97;;;29.46;47.18
55757;BME280;41676;44.610;44.078;2023-07-13T07:29:11;100566.97;;;29.91;46.66
55757;BME280;41676;44.610;44.078;2023-07-13T07:34:12;100549.53;;;30.06;43.44
55757;BME280;41676;44.610;44.078;2023-07-13T07:39:13;100564.88;;;29.83;42.65
55757;BME280;41676;44.610;44.078;2023-07-13T07:44:13;100556.09;;;29.86;42.77
55757;BME280;41676;44.610;44.078;2023-07-13T07:49:14;100547.03;;;30.10;42.30
55757;BME280;41676;44.610;44.078;2023-07-13T07:54:15;100479.56;;;29.23;42.90
55757;BME280;41676;44.610;44.078;2023-07-13T07:59:16;100562.34;;;29.33;42.58
55757;BME280;41676;44.610;44.078;2023-07-13T08:04:17;100560.69;;;28.98;42.82
55757;BME280;41676;44.610;44.078;2023-07-13T08:09:18;100485.72;;;28.31;42.42
55757;BME280;41676;44.610;44.078;2023-07-13T08:14:19;100560.34;;;28.76;43.65
55757;BME280;41676;44.610;44.078;2023-07-13T08:19:19;100477.22;;;28.42;43.37
55757;BME280;41676;44.610;44.078;2023-07-13T08:24:23;100481.69;;;28.18;43.45
55757;BME280;41676;44.610;44.078;2023-07-13T08:29:23;100485.53;;;28.12;43.56
55757;BME280;41676;44.610;44.078;2023-07-13T08:34:24;100552.91;;;28.32;44.31
55757;BME280;41676;44.610;44.078;2023-07-13T08:39:25;100482.13;;;27.86;43.42
55757;BME280;41676;44.610;44.078;2023-07-13T08:44:55;100542.03;;;28.21;42.48
55757;BME280;41676;44.610;44.078;2023-07-13T08:49:57;100540.31;;;28.41;42.84
55757;BME280;41676;44.610;44.078;2023-07-13T08:55:05;100544.72;;;29.16;41.37
55757;BME280;41676;44.610;44.078;2023-07-13T09:00:12;100528.88;;;29.71;40.93
55757;BME280;41676;44.610;44.078;2023-07-13T09:05:27;100479.25;;;29.96;39.52
55757;BME280;41676;44.610;44.078;2023-07-13T09:10:32;100518.81;;;30.09;39.07
55757;BME280;41676;44.610;44.078;2023-07-13T09:15:41;100527.47;;;29.73;39.28
55757;BME280;41676;44.610;44.078;2023-07-13T09:21:00;100507.66;;;29.82;40.16
55757;BME280;41676;44.610;44.078;2023-07-13T09:26:20;100455.16;;;29.98;38.26
55757;BME280;41676;44.610;44.078;2023-07-13T09:31:38;100506.03;;;30.61;37.87
55757;BME280;41676;44.610;44.078;2023-07-13T09:36:39;100498.34;;;30.25;37.71
55757;BME280;41676;44.610;44.078;2023-07-13T09:42:03;100500.38;;;30.15;36.64
55757;BME280;41676;44.610;44.078;2023-07-13T09:47:21;100502.63;;;30.13;37.62
55757;BME280;41676;44.610;44.078;2023-07-13T09:52:49;100499.75;;;30.42;37.80
55757;BME280;41676;44.610;44.078;2023-07-13T09:57:51;100501.06;;;30.07;38.25
55757;BME280;41676;44.610;44.078;2023-07-13T10:03:04;100444.41;;;29.59;37.63
55757;BME280;41676;44.610;44.078;2023-07-13T10:08:05;100485.91;;;30.33;37.40
55757;BME280;41676;44.610;44.078;2023-07-13T10:13:57;100482.84;;;31.05;36.42
55757;BME280;41676;44.610;44.078;2023-07-13T10:18:59;100486.78;;;31.46;35.74
55757;BME280;41676;44.610;44.078;2023-07-13T10:24:12;100496.88;;;31.50;34.25
55757;BME280;41676;44.610;44.078;2023-07-13T10:29:16;100481.81;;;31.48;34.09
55757;BME280;41676;44.610;44.078;2023-07-13T10:34:16;100481.38;;;31.82;34.91
55757;BME280;41676;44.610;44.078;2023-07-13T10:39:21;100466.94;;;31.35;33.04
55757;BME280;41676;44.610;44.078;2023-07-13T10:44:26;100463.03;;;31.22;35.27
55757;BME280;41676;44.610;44.078;2023-07-13T10:49:30;100441.72;;;31.33;33.96
55757;BME280;41676;44.610;44.078;2023-07-13T10:54:33;100470.94;;;30.96;33.96
55757;BME280;41676;44.610;44.078;2023-07-13T10:59:35;100448.97;;;30.96;33.80
55757;BME280;41676;44.610;44.078;2023-07-13T11:04:47;100321.44;;;30.66;34.19
55757;BME280;41676;44.610;44.078;2023-07-13T11:09:51;100382.44;;;31.32;33.44
55757;BME280;41676;44.610;44.078;2023-07-13T11:25:28;100374.88;;;31.79;32.50
55757;BME280;41676;44.610;44.078;2023-07-13T11:35:31;100398.78;;;31.78;32.29
55757;BME280;41676;44.610;44.078;2023-07-13T11:40:33;100390.13;;;31.99;32.01
55757;BME280;41676;44.610;44.078;2023-07-13T11:45:34;100384.69;;;32.08;32.67
55757;BME280;41676;44.610;44.078;2023-07-13T11:50:35;100380.69;;;32.14;31.99
55757;BME280;41676;44.610;44.078;2023-07-13T11:55:38;100383.75;;;32.12;32.12
55757;BME280;41676;44.610;44.078;2023-07-13T12:00:38;100390.84;;;31.91;33.14
55757;BME280;41676;44.610;44.078;2023-07-13T12:05:58;100398.00;;;32.14;31.95
55757;BME280;41676;44.610;44.078;2023-07-13T12:11:04;100379.94;;;31.99;32.25
55757;BME280;41676;44.610;44.078;2023-07-13T12:16:31;100335.59;;;31.78;31.54
55757;BME280;41676;44.610;44.078;2023-07-13T12:21:38;100381.00;;;32.12;31.10
55757;BME280;41676;44.610;44.078;2023-07-13T12:26:40;100360.09;;;32.25;31.64
55757;BME280;41676;44.610;44.078;2023-07-13T12:31:43;100360.13;;;32.34;32.56
55757;BME280;41676;44.610;44.078;2023-07-13T12:37:08;100375.31;;;32.54;31.40
55757;BME280;41676;44.610;44.078;2023-07-13T12:47:24;100367.03;;;32.22;31.09
55757;BME280;41676;44.610;44.078;2023-07-13T12:52:35;100315.31;;;31.88;31.08
55757;BME280;41676;44.610;44.078;2023-07-13T12:57:40;100374.56;;;32.17;30.35
55757;BME280;41676;44.610;44.078;2023-07-13T13:02:43;100353.19;;;32.36;31.40
55757;BME280;41676;44.610;44.078;2023-07-13T13:07:44;100342.28;;;32.22;31.31
55757;BME280;41676;44.610;44.078;2023-07-13T13:12:48;100353.19;;;32.36;31.19
55757;BME280;41676;44.610;44.078;2023-07-13T13:17:49;100289.59;;;31.84;31.00
55757;BME280;41676;44.610;44.078;2023-07-13T13:22:49;100304.94;;;31.99;31.24
55757;BME280;41676;44.610;44.078;2023-07-13T13:27:50;100254.28;;;31.69;31.41
55757;BME280;41676;44.610;44.078;2023-07-13T13:32:51;100339.03;;;32.20;31.21
55757;BME280;41676;44.610;44.078;2023-07-13T13:37:52;100328.38;;;31.82;31.33
55757;BME280;41676;44.610;44.078;2023-07-13T13:42:53;100333.16;;;31.91;31.32
55757;BME280;41676;44.610;44.078;2023-07-13T13:47:55;100327.03;;;31.94;31.20
55757;BME280;41676;44.610;44.078;2023-07-13T13:52:56;100296.16;;;31.74;31.11
55757;BME280;41676;44.610;44.078;2023-07-13T13:57:57;100305.41;;;31.78;30.98
55757;BME280;41676;44.610;44.078;2023-07-13T14:02:58;100328.88;;;31.84;31.55
55757;BME280;41676;44.610;44.078;2023-07-13T14:08:00;100317.38;;;31.60;31.13
55757;BME280;41676;44.610;44.078;2023-07-13T14:13:00;100292.38;;;31.48;31.46
55757;BME280;41676;44.610;44.078;2023-07-13T14:18:01;100322.53;;;31.61;31.48
55757;BME280;41676;44.610;44.078;2023-07-13T14:23:02;100316.16;;;31.52;31.66
55757;BME280;41676;44.610;44.078;2023-07-13T14:28:23;100315.06;;;31.53;31.35
55757;BME280;41676;44.610;44.078;2023-07-13T14:33:24;100328.19;;;31.43;31.30
55757;BME280;41676;44.610;44.078;2023-07-13T14:38:25;100314.06;;;31.22;30.96
55757;BME280;41676;44.610;44.078;2023-07-13T14:43:27;100331.03;;;31.24;31.31
55757;BME280;41676;44.610;44.078;2023-07-13T14:48:29;100340.91;;;31.38;31.45
55757;BME280;41676;44.610;44.078;2023-07-13T14:53:30;100258.16;;;30.62;30.58
55757;BME280;41676;44.610;44.078;2023-07-13T14:58:31;100299.31;;;30.76;31.51
55757;BME280;41676;44.610;44.078;2023-07-13T15:03:32;100336.81;;;30.95;31.42
55757;BME280;41676;44.610;44.078;2023-07-13T15:08:33;100319.53;;;30.80;31.49
55757;BME280;41676;44.610;44.078;2023-07-13T15:13:35;100322.81;;;30.82;31.59
55757;BME280;41676;44.610;44.078;2023-07-13T15:18:36;100321.03;;;30.59;33.29
55757;BME280;41676;44.610;44.078;2023-07-13T15:23:40;100332.78;;;30.45;35.44
55757;BME280;41676;44.610;44.078;2023-07-13T15:28:42;100207.31;;;29.44;36.88
55757;BME280;41676;44.610;44.078;2023-07-13T15:33:43;100313.38;;;29.90;37.64
55757;BME280;41676;44.610;44.078;2023-07-13T15:38:45;100340.94;;;29.80;38.58
55757;BME280;41676;44.610;44.078;2023-07-13T15:43:51;100331.50;;;29.48;39.63
55757;BME280;41676;44.610;44.078;2023-07-13T15:48:53;100281.00;;;28.93;40.18
55757;BME280;41676;44.610;44.078;2023-07-13T15:53:56;100341.31;;;29.06;41.06
55757;BME280;41676;44.610;44.078;2023-07-13T15:58:58;100345.91;;;28.87;41.45
55757;BME280;41676;44.610;44.078;2023-07-13T16:03:59;100341.50;;;28.62;42.14
55757;BME280;41676;44.610;44.078;2023-07-13T16:09:00;100349.84;;;28.47;42.90
55757;BME280;41676;44.610;44.078;2023-07-13T16:14:02;100238.56;;;27.54;43.43
55757;BME280;41676;44.610;44.078;2023-07-13T16:19:04;100343.91;;;28.00;44.40
55757;BME280;41676;44.610;44.078;2023-07-13T16:24:08;100363.63;;;27.92;44.62
55757;BME280;41676;44.610;44.078;2023-07-13T16:29:25;100301.94;;;27.36;46.14
55757;BME280;41676;44.610;44.078;2023-07-13T16:34:26;100367.59;;;27.55;45.74
55757;BME280;41676;44.610;44.078;2023-07-13T16:39:27;100373.44;;;27.38;46.32
55757;BME280;41676;44.610;44.078;2023-07-13T16:44:31;100367.75;;;27.14;46.85
55757;BME280;41676;44.610;44.078;2023-07-13T16:49:35;100367.81;;;26.89;48.10
55757;BME280;41676;44.610;44.078;2023-07-13T16:54:38;100388.00;;;26.82;48.14
55757;BME280;41676;44.610;44.078;2023-07-13T16:59:39;100372.78;;;26.51;49.34
55757;BME280;41676;44.610;44.078;2023-07-13T17:04:41;100388.81;;;26.37;50.72
55757;BME280;41676;44.610;44.078;2023-07-13T17:09:42;100400.50;;;26.12;51.85
55757;BME280;41676;44.610;44.078;2023-07-13T17:14:46;100390.03;;;25.73;53.23
55757;BME280;41676;44.610;44.078;2023-07-13T17:19:51;100390.53;;;25.60;55.88
55757;BME280;41676;44.610;44.078;2023-07-13T17:24:52;100377.31;;;25.21;55.42
55757;BME280;41676;44.610;44.078;2023-07-13T17:29:53;100341.84;;;24.58;56.80
55757;BME280;41676;44.610;44.078;2023-07-13T17:34:54;100423.25;;;24.80;58.62
55757;BME280;41676;44.610;44.078;2023-07-13T17:39:55;100439.16;;;24.66;59.42
55757;BME280;41676;44.610;44.078;2023-07-13T17:44:57;100414.94;;;24.32;59.90
55757;BME280;41676;44.610;44.078;2023-07-13T17:49:58;100420.75;;;24.19;61.47
55757;BME280;41676;44.610;44.078;2023-07-13T17:54:59;100451.19;;;24.21;62.28
55757;BME280;41676;44.610;44.078;2023-07-13T18:00:04;100427.34;;;23.96;63.30
55757;BME280;41676;44.610;44.078;2023-07-13T18:05:24;100416.47;;;23.74;64.32
55757;BME280;41676;44.610;44.078;2023-07-13T18:10:25;100437.94;;;23.76;65.44
55757;BME280;41676;44.610;44.078;2023-07-13T18:15:29;100425.53;;;23.63;65.83
55757;BME280;41676;44.610;44.078;2023-07-13T18:20:31;100371.44;;;23.29;65.15
55757;BME280;41676;44.610;44.078;2023-07-13T18:25:33;100442.00;;;23.56;66.74
55757;BME280;41676;44.610;44.078;2023-07-13T18:30:34;100389.81;;;23.05;67.47
55757;BME280;41676;44.610;44.078;2023-07-13T18:35:36;100362.88;;;22.82;67.37
55757;BME280;41676;44.610;44.078;2023-07-13T18:40:38;100431.66;;;23.14;67.33
55757;BME280;41676;44.610;44.078;2023-07-13T18:45:39;100443.59;;;23.13;69.30
55757;BME280;41676;44.610;44.078;2023-07-13T18:50:41;100364.81;;;22.47;70.25
55757;BME280;41676;44.610;44.078;2023-07-13T18:55:44;100376.63;;;22.41;71.02
55757;BME280;41676;44.610;44.078;2023-07-13T19:00:47;100448.50;;;22.66;72.05
55757;BME280;41676;44.610;44.078;2023-07-13T19:05:50;100435.34;;;22.41;72.87
55757;BME280;41676;44.610;44.078;2023-07-13T19:10:52;100438.19;;;22.17;73.42
55757;BME280;41676;44.610;44.078;2023-07-13T19:15:54;100459.19;;;22.15;74.24
55757;BME280;41676;44.610;44.078;2023-07-13T19:20:57;100462.22;;;22.02;74.50
55757;BME280;41676;44.610;44.078;2023-07-13T19:26:27;100468.94;;;22.16;78.07
55757;BME280;41676;44.610;44.078;2023-07-13T19:31:31;100474.19;;;22.06;76.24
55757;BME280;41676;44.610;44.078;2023-07-13T19:36:34;100393.63;;;21.68;75.11
55757;BME280;41676;44.610;44.078;2023-07-13T19:41:36;100471.84;;;21.98;75.08
55757;BME280;41676;44.610;44.078;2023-07-13T19:46:38;100399.06;;;21.56;75.10
55757;BME280;41676;44.610;44.078;2023-07-13T19:51:39;100469.03;;;21.93;75.34
55757;BME280;41676;44.610;44.078;2023-07-13T19:56:41;100400.03;;;21.50;75.27
55757;BME280;41676;44.610;44.078;2023-07-13T20:01:42;100469.97;;;21.98;75.87
55757;BME280;41676;44.610;44.078;2023-07-13T20:06:44;100472.59;;;21.93;76.44
55757;BME280;41676;44.610;44.078;2023-07-13T20:11:46;100452.63;;;21.71;76.92
55757;BME280;41676;44.610;44.078;2023-07-13T20:16:48;100471.19;;;21.79;77.47
55757;BME280;41676;44.610;44.078;2023-07-13T20:21:50;100477.19;;;21.81;77.06
55757;BME280;41676;44.610;44.078;2023-07-13T20:26:51;100469.31;;;21.79;77.38
55757;BME280;41676;44.610;44.078;2023-07-13T20:31:51;100461.69;;;21.76;78.43
55757;BME280;41676;44.610;44.078;2023-07-13T20:36:53;100459.22;;;21.75;78.83
55757;BME280;41676;44.610;44.078;2023-07-13T20:41:53;100415.19;;;21.51;78.00
55757;BME280;41676;44.610;44.078;2023-07-13T20:46:54;100446.31;;;21.65;77.88
55757;BME280;41676;44.610;44.078;2023-07-13T20:51:55;100427.63;;;21.63;76.22
55757;BME280;41676;44.610;44.078;2023-07-13T20:56:58;100453.56;;;21.76;75.95
55757;BME280;41676;44.610;44.078;2023-07-13T21:01:59;100359.53;;;21.14;76.08
55757;BME280;41676;44.610;44.078;2023-07-13T21:07:00;100372.47;;;21.12;76.19
55757;BME280;41676;44.610;44.078;2023-07-13T21:12:00;100450.31;;;21.51;76.52
55757;BME280;41676;44.610;44.078;2023-07-13T21:17:01;100368.50;;;20.91;77.07
55757;BME280;41676;44.610;44.078;2023-07-13T21:22:02;100459.13;;;21.34;77.39
55757;BME280;41676;44.610;44.078;2023-07-13T21:27:03;100444.22;;;21.20;78.30
55757;BME280;41676;44.610;44.078;2023-07-13T21:32:10;100394.22;;;20.82;79.12
55757;BME280;41676;44.610;44.078;2023-07-13T21:37:22;100463.59;;;21.05;80.07
55757;BME280;41676;44.610;44.078;2023-07-13T21:42:23;100440.09;;;20.82;78.84
55757;BME280;41676;44.610;44.078;2023-07-13T21:47:24;100450.19;;;20.87;79.26
55757;BME280;41676;44.610;44.078;2023-07-13T21:52:25;100443.50;;;20.89;80.01
55757;BME280;41676;44.610;44.078;2023-07-13T21:57:25;100390.53;;;20.53;80.21
55757;BME280;41676;44.610;44.078;2023-07-13T22:02:28;100455.72;;;20.92;80.59
55757;BME280;41676;44.610;44.078;2023-07-13T22:07:29;100437.63;;;20.69;80.85
55757;BME280;41676;44.610;44.078;2023-07-13T22:12:30;100453.00;;;20.80;81.07
55757;BME280;41676;44.610;44.078;2023-07-13T22:17:31;100426.47;;;20.65;81.16
55757;BME280;41676;44.610;44.078;2023-07-13T22:22:32;100438.06;;;20.66;81.88
55757;BME280;41676;44.610;44.078;2023-07-13T22:27:33;100372.72;;;20.22;82.12
55757;BME280;41676;44.610;44.078;2023-07-13T22:32:34;100449.19;;;20.58;82.49
55757;BME280;41676;44.610;44.078;2023-07-13T22:37:35;100372.78;;;20.03;83.02
55757;BME280;41676;44.610;44.078;2023-07-13T22:42:37;100432.34;;;20.32;84.07
55757;BME280;41676;44.610;44.078;2023-07-13T22:47:40;100441.81;;;20.53;83.57
55757;BME280;41676;44.610;44.078;2023-07-13T22:52:42;100408.53;;;19.99;84.14
55757;BME280;41676;44.610;44.078;2023-07-13T22:57:47;100354.75;;;19.55;86.40
55757;BME280;41676;44.610;44.078;2023-07-13T23:02:49;100426.50;;;20.05;85.35
55757;BME280;41676;44.610;44.078;2023-07-13T23:07:50;100426.97;;;20.02;85.67
55757;BME280;41676;44.610;44.078;2023-07-13T23:12:53;100356.25;;;19.51;85.67
55757;BME280;41676;44.610;44.078;2023-07-13T23:17:54;100435.34;;;19.94;85.71
55757;BME280;41676;44.610;44.078;2023-07-13T23:22:56;100446.34;;;19.92;86.01
55757;BME280;41676;44.610;44.078;2023-07-13T23:27:57;100329.91;;;19.35;86.49
55757;BME280;41676;44.610;44.078;2023-07-13T23:38:12;100434.88;;;19.67;87.12
55757;BME280;41676;44.610;44.078;2023-07-13T23:43:13;100415.69;;;19.56;87.47
55757;BME280;41676;44.610;44.078;2023-07-13T23:48:14;100372.94;;;19.23;87.60
55757;BME280;41676;44.610;44.078;2023-07-13T23:53:15;100412.16;;;19.37;87.81
55757;BME280;41676;44.610;44.078;2023-07-13T23:58:16;100386.41;;;19.23;87.96
